Hays Regional, KS

12:43 PM CDT on October 02, 2014 (GMT -0500)
Hays Regional | Change Station
CLOSE
Current Station
Airport
Location: Hays,
Elevation: 1998 ft
Nearby Weather Stations

Elev 1998 ft 38.84 °N, 99.27 °W | Updated 8 minutes ago

Mostly Cloudy
Mostly Cloudy
57 °F
Feels Like 57 °F
N
17
Wind Variable Wind from NNW
Gusts 22 mph

Today
High -- | Low -- °F
--% Chance of Precip.
Yesterday
High -- | Low -- °F
Precip. -- in
7:33 AM 7:18 PM
First Quarter, 60% visible
Pressure 29.94 in
Visibility 10.0 miles
Clouds Mostly Cloudy 2000 ft
Mostly Cloudy 2500 ft
Dew Point 48 °F
Humidity 72%
Rainfall 0.00 in
Snow Depth Not available.
UV 4 out of 12
Pollen 3.50 out of 12
Air Quality Not available.
Flu Activity Not available.
METAR KHYS 021735Z AUTO 34015G19KT 10SM BKN020 BKN025 14/09 A2994 RMK AO1

More Conditions Fewer Conditions

Pressure 29.94 in
Visibility 10.0 miles
Clouds Mostly Cloudy 2000 ft
Mostly Cloudy 2500 ft
Dew Point 48 °F
Humidity 72%
Rainfall 0.00 in
Snow Depth Not available.
UV 4 out of 12
Pollen 3.50 out of 12
Air Quality Not available.
Flu Activity Not available.
METAR KHYS 021735Z AUTO 34015G19KT 10SM BKN020 BKN025 14/09 A2994 RMK AO1

More Conditions Fewer Conditions

10-Day Weather Forecast

Almanac

Astronomy

Oct. 02, 2014 Rise Set
Actual Time 7:33 AM CDT 7:18 PM CDT
Civil Twilight 7:07 AM CDT 7:44 PM CDT
Nautical Twilight 6:36 AM CDT 8:15 PM CDT
Astronomical Twilight 6:05 AM CDT 8:46 PM CDT
Moon 3:22 PM CDT 12:55 AM CDT
Length of Visible Light 12h 37m
Length of Day
11h 44m
Tomorrow will be 2m 30s shorter.
First Quarter, 60% of the Moon is Illuminated
Today
First Quarter
Oct 8
Full
Oct 15
Last Quarter
Oct 23
New
Oct 30
First Quarter

Today's Extremes

State Highs State Lows

Community

WunderPhotos

Upload Photos

1,758,312 photos uploaded!

Nearby

Snow Depth

Station Depth Elevation
No new snow has been reported.

Earthquake Activity

City Distance Mag. Time & Date
Harper, Kansas 134 miles 3.3 1:11 AM CDT
2014-10-01
Medford, Oklahoma 157 miles 2.5 10:49 PM CDT
2014-09-30
Harper, Kansas 131 miles 2.9 1:49 PM CDT
2014-09-30
Harper, Kansas 132 miles 3.1 10:24 AM CDT
2014-09-30
Minimum magnitude displayed is 2.5.

Coastal Water Temperatures

Place Temperature
No Stations Reporting

Nearby Weather Stations